createdAt,value
2022-11-29T00:00:03.024Z,15.56
2022-11-29T00:00:16.102Z,15.56
2022-11-29T00:00:26.903Z,15.56
2022-11-29T00:00:39.342Z,15.57
2022-11-29T00:00:50.192Z,15.56
2022-11-29T00:01:03.423Z,15.56
2022-11-29T00:01:15.652Z,15.56
2022-11-29T00:01:26.432Z,15.56
2022-11-29T00:01:38.152Z,15.56
2022-11-29T00:01:48.997Z,15.56
2022-11-29T00:02:01.065Z,15.57
2022-11-29T00:02:12.889Z,15.57
2022-11-29T00:02:24.834Z,15.56
2022-11-29T00:02:35.747Z,15.57
2022-11-29T00:02:47.568Z,15.57
2022-11-29T00:02:58.472Z,15.57
2022-11-29T00:03:10.347Z,15.56
2022-11-29T00:03:21.251Z,15.56
2022-11-29T00:03:32.064Z,15.56
2022-11-29T00:03:44.531Z,15.56
2022-11-29T00:03:55.284Z,15.56
2022-11-29T00:04:06.083Z,15.54
2022-11-29T00:04:16.845Z,15.54
2022-11-29T00:04:27.625Z,15.56
2022-11-29T00:04:38.356Z,15.54
2022-11-29T00:04:50.063Z,15.54
2022-11-29T00:05:02.513Z,15.54
2022-11-29T00:05:14.932Z,15.54
2022-11-29T00:05:28.144Z,15.54
2022-11-29T00:05:38.922Z,15.54
2022-11-29T00:05:50.635Z,15.56
2022-11-29T00:06:01.406Z,15.54
2022-11-29T00:06:12.154Z,15.54
2022-11-29T00:06:23.171Z,15.56
2022-11-29T00:06:36.154Z,15.54
2022-11-29T00:06:46.935Z,15.56
2022-11-29T00:06:57.705Z,15.56
2022-11-29T00:07:12.304Z,15.54
2022-11-29T00:07:24.093Z,15.56
2022-11-29T00:07:34.884Z,15.56
2022-11-29T00:07:45.694Z,15.56
2022-11-29T00:07:56.464Z,15.57
2022-11-29T00:08:08.186Z,15.54
2022-11-29T00:08:20.915Z,15.56
2022-11-29T00:08:33.125Z,15.56
2022-11-29T00:08:45.365Z,15.54
2022-11-29T00:08:57.566Z,15.54
2022-11-29T00:09:08.384Z,15.52
2022-11-29T00:09:19.225Z,15.54
2022-11-29T00:09:29.975Z,15.54
2022-11-29T00:09:43.206Z,15.56
2022-11-29T00:09:54.015Z,15.52
2022-11-29T00:10:04.817Z,15.54
2022-11-29T00:10:17.234Z,15.54
2022-11-29T00:10:27.972Z,15.54
2022-11-29T00:10:39.715Z,15.54
2022-11-29T00:10:51.497Z,15.54
2022-11-29T00:11:02.226Z,15.54
2022-11-29T00:11:13.957Z,15.54
2022-11-29T00:11:25.687Z,15.54
2022-11-29T00:11:36.696Z,15.54
2022-11-29T00:11:48.968Z,15.52
2022-11-29T00:12:00.727Z,15.54
2022-11-29T00:12:12.417Z,15.54
2022-11-29T00:12:24.888Z,15.54
2022-11-29T00:12:36.607Z,15.54
2022-11-29T00:12:47.369Z,15.54
2022-11-29T00:12:58.137Z,15.54
2022-11-29T00:13:10.577Z,15.54
2022-11-29T00:13:23.537Z,15.54
2022-11-29T00:13:35.987Z,15.56
2022-11-29T00:13:47.748Z,15.54
2022-11-29T00:14:01.457Z,15.56
2022-11-29T00:14:13.909Z,15.56
2022-11-29T00:14:25.621Z,15.56
2022-11-29T00:14:38.578Z,15.57
2022-11-29T00:14:50.309Z,15.57
2022-11-29T00:15:01.067Z,15.56
2022-11-29T00:15:11.848Z,15.57
2022-11-29T00:15:22.648Z,15.57
2022-11-29T00:15:34.359Z,15.56
2022-11-29T00:15:46.840Z,15.56
2022-11-29T00:15:58.548Z,15.56
2022-11-29T00:16:09.379Z,15.56
2022-11-29T00:16:20.239Z,15.57
2022-11-29T00:16:32.043Z,15.56
2022-11-29T00:16:44.570Z,15.56
2022-11-29T00:16:57.084Z,15.56
2022-11-29T00:17:09.548Z,15.54
2022-11-29T00:17:20.339Z,15.56
2022-11-29T00:17:32.060Z,15.54
2022-11-29T00:17:43.808Z,15.54
2022-11-29T00:17:56.039Z,15.54
2022-11-29T00:18:09.758Z,15.54
2022-11-29T00:18:20.530Z,15.56
2022-11-29T00:18:33.299Z,15.52
2022-11-29T00:18:45.780Z,15.52
2022-11-29T00:18:56.569Z,15.54
2022-11-29T00:19:09.490Z,15.54
2022-11-29T00:19:21.223Z,15.54
2022-11-29T00:19:31.979Z,15.54
2022-11-29T00:19:43.679Z,15.52
2022-11-29T00:19:56.110Z,15.54
2022-11-29T00:20:06.909Z,15.54
2022-11-29T00:20:20.170Z,15.54
2022-11-29T00:20:32.630Z,15.54
2022-11-29T00:20:43.382Z,15.54
2022-11-29T00:20:55.859Z,15.54
2022-11-29T00:21:06.619Z,15.54
2022-11-29T00:21:19.089Z,15.54
2022-11-29T00:21:31.042Z,15.52
2022-11-29T00:21:44.250Z,15.52
2022-11-29T00:21:56.031Z,15.54
2022-11-29T00:22:06.790Z,15.51
2022-11-29T00:22:19.251Z,15.54
2022-11-29T00:22:31.690Z,15.54
2022-11-29T00:22:44.413Z,15.52
2022-11-29T00:22:56.170Z,15.51
2022-11-29T00:23:06.933Z,15.51
2022-11-29T00:23:17.711Z,15.52
2022-11-29T00:23:29.421Z,15.51
2022-11-29T00:23:42.071Z,15.51
2022-11-29T00:23:52.842Z,15.52
2022-11-29T00:24:05.091Z,15.51
2022-11-29T00:24:15.882Z,15.51
2022-11-29T00:24:26.631Z,15.51
2022-11-29T00:24:37.492Z,15.51
2022-11-29T00:24:48.241Z,15.52
2022-11-29T00:25:00.652Z,15.52
2022-11-29T00:25:12.892Z,15.52
2022-11-29T00:25:23.691Z,15.51
2022-11-29T00:25:35.382Z,15.51
2022-11-29T00:25:48.604Z,15.52
2022-11-29T00:26:01.043Z,15.52
2022-11-29T00:26:11.803Z,15.52
2022-11-29T00:26:24.074Z,15.52
2022-11-29T00:26:34.845Z,15.51
2022-11-29T00:26:46.565Z,15.52
2022-11-29T00:26:58.292Z,15.52
2022-11-29T00:27:10.733Z,15.52
2022-11-29T00:27:22.444Z,15.51
2022-11-29T00:27:34.172Z,15.54
2022-11-29T00:27:44.923Z,15.51
2022-11-29T00:27:56.623Z,15.51
2022-11-29T00:28:07.352Z,15.52
2022-11-29T00:28:19.073Z,15.52
2022-11-29T00:28:29.853Z,15.52
2022-11-29T00:28:42.573Z,15.52
2022-11-29T00:28:55.803Z,15.54
2022-11-29T00:29:08.027Z,15.54
2022-11-29T00:29:19.716Z,15.51
2022-11-29T00:29:30.455Z,15.52
2022-11-29T00:29:41.234Z,15.52
2022-11-29T00:29:51.985Z,15.52
2022-11-29T00:30:04.251Z,15.54
2022-11-29T00:30:16.683Z,15.52
2022-11-29T00:30:29.204Z,15.51
2022-11-29T00:30:41.675Z,15.52
2022-11-29T00:30:53.976Z,15.51
2022-11-29T00:31:05.771Z,15.51
2022-11-29T00:31:16.751Z,15.52
2022-11-29T00:31:28.534Z,15.51
2022-11-29T00:31:40.745Z,15.51
2022-11-29T00:31:52.464Z,15.52
2022-11-29T00:32:04.196Z,15.52
2022-11-29T00:32:15.895Z,15.49
2022-11-29T00:32:27.605Z,15.51
2022-11-29T00:32:38.375Z,15.51
2022-11-29T00:32:50.355Z,15.49
2022-11-29T00:33:02.596Z,15.51
2022-11-29T00:33:15.566Z,15.51
2022-11-29T00:33:26.387Z,15.51
2022-11-29T00:33:39.586Z,15.51
2022-11-29T00:33:50.343Z,15.51
2022-11-29T00:34:03.571Z,15.51
2022-11-29T00:34:16.015Z,15.51
2022-11-29T00:34:27.716Z,15.49
2022-11-29T00:34:39.935Z,15.51
2022-11-29T00:34:50.745Z,15.51
2022-11-29T00:35:08.108Z,15.51
2022-11-29T00:35:18.389Z,15.49
2022-11-29T00:35:30.106Z,15.51
2022-11-29T00:35:40.857Z,15.51
2022-11-29T00:35:51.676Z,15.52
2022-11-29T00:36:02.483Z,15.49
2022-11-29T00:36:14.896Z,15.51
2022-11-29T00:36:26.636Z,15.52
2022-11-29T00:36:38.380Z,15.51
2022-11-29T00:36:50.835Z,15.51
2022-11-29T00:37:02.806Z,15.51
2022-11-29T00:37:14.538Z,15.49
2022-11-29T00:37:26.996Z,15.49
2022-11-29T00:37:38.748Z,15.48
2022-11-29T00:37:51.222Z,15.49
2022-11-29T00:38:02.037Z,15.48
2022-11-29T00:38:12.839Z,15.48
2022-11-29T00:38:25.068Z,15.49
2022-11-29T00:38:38.286Z,15.49
2022-11-29T00:38:49.075Z,15.49
2022-11-29T00:39:01.348Z,15.48
2022-11-29T00:39:14.325Z,15.48
2022-11-29T00:39:26.537Z,15.49
2022-11-29T00:39:39.025Z,15.48
2022-11-29T00:39:49.808Z,15.49
2022-11-29T00:40:02.228Z,15.48
2022-11-29T00:40:14.680Z,15.49
2022-11-29T00:40:26.909Z,15.49
2022-11-29T00:40:37.658Z,15.49
2022-11-29T00:40:49.428Z,15.49
2022-11-29T00:41:00.221Z,15.49
2022-11-29T00:41:11.977Z,15.49
2022-11-29T00:41:23.710Z,15.51
2022-11-29T00:41:36.213Z,15.49
2022-11-29T00:41:48.658Z,15.49
2022-11-29T00:42:01.109Z,15.49
2022-11-29T00:42:13.320Z,15.48
2022-11-29T00:42:26.528Z,15.48
2022-11-29T00:42:38.278Z,15.48
2022-11-29T00:42:49.046Z,15.48
2022-11-29T00:43:00.759Z,15.48
2022-11-29T00:43:11.789Z,15.48
2022-11-29T00:43:22.640Z,15.48
2022-11-29T00:43:35.127Z,15.49
2022-11-29T00:43:47.599Z,15.48
2022-11-29T00:43:59.339Z,15.48
2022-11-29T00:44:13.888Z,15.48
2022-11-29T00:44:27.499Z,15.48
2022-11-29T00:44:38.310Z,15.48
2022-11-29T00:44:49.060Z,15.48
2022-11-29T00:45:02.754Z,15.49
2022-11-29T00:45:14.520Z,15.48
2022-11-29T00:45:25.279Z,15.48
2022-11-29T00:45:36.176Z,15.48
2022-11-29T00:45:47.004Z,15.48
2022-11-29T00:45:58.801Z,15.46
2022-11-29T00:46:11.080Z,15.48
2022-11-29T00:46:22.913Z,15.46
2022-11-29T00:46:35.110Z,15.46
2022-11-29T00:46:45.918Z,15.46
2022-11-29T00:46:58.630Z,15.46
2022-11-29T00:47:10.870Z,15.46
2022-11-29T00:47:23.310Z,15.46
2022-11-29T00:47:35.000Z,15.46
2022-11-29T00:47:46.742Z,15.46
2022-11-29T00:47:59.182Z,15.46
2022-11-29T00:48:10.952Z,15.46
2022-11-29T00:48:23.202Z,15.46
2022-11-29T00:48:35.451Z,15.46
2022-11-29T00:48:47.920Z,15.45
2022-11-29T00:48:59.671Z,15.46
2022-11-29T00:49:10.511Z,15.45
2022-11-29T00:49:21.511Z,15.45
2022-11-29T00:49:33.731Z,15.45
2022-11-29T00:49:45.443Z,15.45
2022-11-29T00:49:56.261Z,15.46
2022-11-29T00:50:08.012Z,15.46
2022-11-29T00:50:18.805Z,15.46
2022-11-29T00:50:29.591Z,15.46
2022-11-29T00:50:40.391Z,15.46
2022-11-29T00:50:51.190Z,15.46
2022-11-29T00:51:02.002Z,15.45
2022-11-29T00:51:12.783Z,15.46
2022-11-29T00:51:25.231Z,15.46
2022-11-29T00:51:36.013Z,15.46
2022-11-29T00:51:46.808Z,15.48
2022-11-29T00:51:58.542Z,15.45
2022-11-29T00:52:11.092Z,15.46
2022-11-29T00:52:22.612Z,15.46
2022-11-29T00:52:34.852Z,15.46
2022-11-29T00:52:45.643Z,15.46
2022-11-29T00:52:58.101Z,15.46
2022-11-29T00:53:09.823Z,15.46
2022-11-29T00:53:21.555Z,15.48
2022-11-29T00:53:34.062Z,15.46
2022-11-29T00:53:46.519Z,15.46
2022-11-29T00:53:58.746Z,15.46
2022-11-29T00:54:12.484Z,15.48
2022-11-29T00:54:24.194Z,15.46
2022-11-29T00:54:34.963Z,15.45
2022-11-29T00:54:47.411Z,15.45
2022-11-29T00:54:58.173Z,15.46
2022-11-29T00:55:11.384Z,15.45
2022-11-29T00:55:23.824Z,15.45
2022-11-29T00:55:35.515Z,15.46
2022-11-29T00:55:47.334Z,15.46
2022-11-29T00:55:58.143Z,15.46
2022-11-29T00:56:08.923Z,15.46
2022-11-29T00:56:22.124Z,15.45
2022-11-29T00:56:33.864Z,15.45
2022-11-29T00:56:44.601Z,15.45
2022-11-29T00:56:58.285Z,15.45
2022-11-29T00:57:09.074Z,15.46
2022-11-29T00:57:21.025Z,15.45
2022-11-29T00:57:32.752Z,15.45
2022-11-29T00:57:43.554Z,15.45
2022-11-29T00:57:56.294Z,15.45
2022-11-29T00:58:09.485Z,15.45
2022-11-29T00:58:20.253Z,15.45
2022-11-29T00:58:31.015Z,15.45
2022-11-29T00:58:42.719Z,15.45
2022-11-29T00:58:54.465Z,15.43
2022-11-29T00:59:05.270Z,15.45
2022-11-29T00:59:17.480Z,15.45
2022-11-29T00:59:30.205Z,15.45
2022-11-29T00:59:40.974Z,15.43
2022-11-29T00:59:52.695Z,15.45
2022-11-29T01:00:06.433Z,15.45
2022-11-29T01:00:17.217Z,15.43
2022-11-29T01:00:28.965Z,15.45
2022-11-29T01:00:39.726Z,15.43
2022-11-29T01:00:52.319Z,15.43
2022-11-29T01:01:04.670Z,15.45
2022-11-29T01:01:17.238Z,15.45
2022-11-29T01:01:29.029Z,15.45
2022-11-29T01:01:41.508Z,15.45
2022-11-29T01:01:53.816Z,15.45
2022-11-29T01:02:07.146Z,15.45
2022-11-29T01:02:20.947Z,15.45
2022-11-29T01:02:34.259Z,15.45
2022-11-29T01:02:46.761Z,15.45
2022-11-29T01:02:57.534Z,15.45
2022-11-29T01:03:09.271Z,15.45
2022-11-29T01:03:20.035Z,15.45
2022-11-29T01:03:31.768Z,15.45
2022-11-29T01:03:43.496Z,15.45
2022-11-29T01:03:54.328Z,15.45
2022-11-29T01:04:06.084Z,15.43
2022-11-29T01:04:16.867Z,15.45
2022-11-29T01:04:27.674Z,15.46
2022-11-29T01:04:39.876Z,15.45
2022-11-29T01:04:51.621Z,15.45
2022-11-29T01:05:02.380Z,15.45
2022-11-29T01:05:14.628Z,15.45
2022-11-29T01:05:25.405Z,15.43
2022-11-29T01:05:36.236Z,15.45
2022-11-29T01:05:47.069Z,15.43
2022-11-29T01:06:00.048Z,15.45
2022-11-29T01:06:12.498Z,15.45
2022-11-29T01:06:24.706Z,15.45
2022-11-29T01:06:37.167Z,15.45
2022-11-29T01:06:49.619Z,15.45
2022-11-29T01:07:00.348Z,15.45
2022-11-29T01:07:11.128Z,15.45
2022-11-29T01:07:21.942Z,15.45
2022-11-29T01:07:32.790Z,15.45
2022-11-29T01:07:45.497Z,15.45
2022-11-29T01:07:57.313Z,15.45
2022-11-29T01:08:08.148Z,15.45
2022-11-29T01:08:18.901Z,15.45
2022-11-29T01:08:31.350Z,15.48
2022-11-29T01:08:42.096Z,15.46
2022-11-29T01:08:52.869Z,15.45
2022-11-29T01:09:03.670Z,15.46
2022-11-29T01:09:14.429Z,15.45
2022-11-29T01:09:25.179Z,15.45
2022-11-29T01:09:35.949Z,15.48
2022-11-29T01:09:46.711Z,15.46
2022-11-29T01:09:58.909Z,15.46
2022-11-29T01:10:10.670Z,15.46
2022-11-29T01:10:23.120Z,15.45
2022-11-29T01:10:36.180Z,15.46
2022-11-29T01:10:47.920Z,15.45
2022-11-29T01:10:58.721Z,15.45
2022-11-29T01:11:09.460Z,15.46
2022-11-29T01:11:21.179Z,15.46
2022-11-29T01:11:34.880Z,15.45
2022-11-29T01:11:45.657Z,15.46
2022-11-29T01:11:57.388Z,15.45
2022-11-29T01:12:08.201Z,15.46
2022-11-29T01:12:19.960Z,15.46
2022-11-29T01:12:30.793Z,15.46
2022-11-29T01:12:43.251Z,15.48
2022-11-29T01:12:54.030Z,15.46
2022-11-29T01:13:04.853Z,15.46
2022-11-29T01:13:16.601Z,15.46
2022-11-29T01:13:29.889Z,15.46
2022-11-29T01:13:40.651Z,15.46
2022-11-29T01:13:51.401Z,15.46
2022-11-29T01:14:03.649Z,15.46
2022-11-29T01:14:14.443Z,15.46
2022-11-29T01:14:25.210Z,15.48
2022-11-29T01:14:36.002Z,15.45
2022-11-29T01:14:48.431Z,15.45
2022-11-29T01:15:00.883Z,15.46
2022-11-29T01:15:11.620Z,15.45
2022-11-29T01:15:24.263Z,15.45
2022-11-29T01:15:36.481Z,15.45
2022-11-29T01:15:47.221Z,15.43
2022-11-29T01:15:58.011Z,15.43
2022-11-29T01:16:10.193Z,15.43
2022-11-29T01:16:22.720Z,15.45
2022-11-29T01:16:35.245Z,15.45
2022-11-29T01:16:46.143Z,15.45
2022-11-29T01:16:56.967Z,15.43
2022-11-29T01:17:09.454Z,15.45
2022-11-29T01:17:20.251Z,15.46
2022-11-29T01:17:30.992Z,15.45
2022-11-29T01:17:41.792Z,15.43
2022-11-29T01:17:54.263Z,15.45
2022-11-29T01:18:06.702Z,15.45
2022-11-29T01:18:17.471Z,15.43
2022-11-29T01:18:29.232Z,15.43
2022-11-29T01:18:40.034Z,15.45
2022-11-29T01:18:50.815Z,15.43
2022-11-29T01:19:02.513Z,15.43
2022-11-29T01:19:13.261Z,15.43
2022-11-29T01:19:23.990Z,15.43
2022-11-29T01:19:34.733Z,15.42
2022-11-29T01:19:50.616Z,15.43
2022-11-29T01:20:02.723Z,15.42
2022-11-29T01:20:13.504Z,15.43
2022-11-29T01:20:24.333Z,15.43
2022-11-29T01:20:35.121Z,15.43
2022-11-29T01:20:46.825Z,15.43
2022-11-29T01:20:58.601Z,15.43
2022-11-29T01:21:09.395Z,15.43
2022-11-29T01:21:21.842Z,15.42
2022-11-29T01:21:32.615Z,15.43
2022-11-29T01:21:45.834Z,15.43
2022-11-29T01:21:57.617Z,15.43
2022-11-29T01:22:10.094Z,15.42
2022-11-29T01:22:23.308Z,15.42
2022-11-29T01:22:38.014Z,15.42
2022-11-29T01:22:50.514Z,15.42
2022-11-29T01:23:03.024Z,15.41
2022-11-29T01:23:14.754Z,15.41
2022-11-29T01:23:27.245Z,15.42
2022-11-29T01:23:38.044Z,15.41
2022-11-29T01:23:51.287Z,15.42
2022-11-29T01:24:03.725Z,15.41
2022-11-29T01:24:14.535Z,15.42
2022-11-29T01:24:26.963Z,15.42
2022-11-29T01:24:39.474Z,15.43
2022-11-29T01:24:51.955Z,15.42
2022-11-29T01:25:04.188Z,15.42
2022-11-29T01:25:16.915Z,15.42
2022-11-29T01:25:28.665Z,15.43
2022-11-29T01:25:40.387Z,15.42
2022-11-29T01:25:51.164Z,15.45
2022-11-29T01:26:01.954Z,15.43
2022-11-29T01:26:14.216Z,15.45
2022-11-29T01:26:26.679Z,15.43
2022-11-29T01:26:38.376Z,15.45
2022-11-29T01:26:51.596Z,15.43
2022-11-29T01:27:02.348Z,15.45
2022-11-29T01:27:14.796Z,15.45
2022-11-29T01:27:26.526Z,15.45
2022-11-29T01:27:38.995Z,15.43
2022-11-29T01:27:49.762Z,15.45
2022-11-29T01:28:00.525Z,15.45
2022-11-29T01:28:12.948Z,15.45
2022-11-29T01:28:25.876Z,15.45
2022-11-29T01:28:36.616Z,15.45
2022-11-29T01:28:47.424Z,15.45
2022-11-29T01:28:59.180Z,15.45
2022-11-29T01:29:09.907Z,15.43
2022-11-29T01:29:20.701Z,15.45
2022-11-29T01:29:31.466Z,15.43
2022-11-29T01:29:42.216Z,15.45
2022-11-29T01:29:52.996Z,15.45
2022-11-29T01:30:03.797Z,15.45
2022-11-29T01:30:16.244Z,15.45
2022-11-29T01:30:28.778Z,15.45
2022-11-29T01:30:40.524Z,15.45
2022-11-29T01:30:52.969Z,15.45
2022-11-29T01:31:06.221Z,15.45
2022-11-29T01:31:18.709Z,15.45
2022-11-29T01:31:30.736Z,15.43
2022-11-29T01:31:42.492Z,15.45
2022-11-29T01:31:55.197Z,15.43
2022-11-29T01:32:05.967Z,15.43
2022-11-29T01:32:18.432Z,15.43
2022-11-29T01:32:31.118Z,15.43
2022-11-29T01:32:42.808Z,15.43
2022-11-29T01:32:53.609Z,15.42
2022-11-29T01:33:06.066Z,15.43
2022-11-29T01:33:17.808Z,15.43
2022-11-29T01:33:28.619Z,15.43
2022-11-29T01:33:39.422Z,15.42
2022-11-29T01:33:51.379Z,15.43
2022-11-29T01:34:03.829Z,15.43
2022-11-29T01:34:16.058Z,15.42
2022-11-29T01:34:26.808Z,15.42
2022-11-29T01:34:37.628Z,15.42
2022-11-29T01:34:48.408Z,15.42
2022-11-29T01:35:00.120Z,15.42
2022-11-29T01:35:13.338Z,15.42
2022-11-29T01:35:24.110Z,15.41
2022-11-29T01:35:36.599Z,15.42
2022-11-29T01:35:47.403Z,15.41
2022-11-29T01:35:58.159Z,15.42
2022-11-29T01:36:09.861Z,15.43
2022-11-29T01:36:20.640Z,15.43
2022-11-29T01:36:31.369Z,15.42
2022-11-29T01:36:42.141Z,15.42
2022-11-29T01:36:52.883Z,15.42
2022-11-29T01:37:05.329Z,15.42
2022-11-29T01:37:17.779Z,15.42
2022-11-29T01:37:28.552Z,15.42
2022-11-29T01:37:39.311Z,15.41
2022-11-29T01:37:50.151Z,15.42
2022-11-29T01:38:02.671Z,15.41
2022-11-29T01:38:15.151Z,15.41
2022-11-29T01:38:25.920Z,15.42
2022-11-29T01:38:36.720Z,15.42
2022-11-29T01:38:47.501Z,15.42
2022-11-29T01:38:59.270Z,15.42
2022-11-29T01:39:12.219Z,15.42
2022-11-29T01:39:22.959Z,15.42
2022-11-29T01:39:33.739Z,15.42
2022-11-29T01:39:44.481Z,15.41
2022-11-29T01:39:56.241Z,15.41
2022-11-29T01:40:06.983Z,15.41
2022-11-29T01:40:18.704Z,15.41
2022-11-29T01:40:31.862Z,15.42
2022-11-29T01:40:42.600Z,15.41
2022-11-29T01:40:54.312Z,15.39
2022-11-29T01:41:06.770Z,15.41
2022-11-29T01:41:17.531Z,15.41
2022-11-29T01:41:28.300Z,15.39
2022-11-29T01:41:41.021Z,15.41
2022-11-29T01:41:53.972Z,15.41
2022-11-29T01:42:04.772Z,15.39
2022-11-29T01:42:17.202Z,15.39
2022-11-29T01:42:29.404Z,15.41
2022-11-29T01:42:40.181Z,15.39
2022-11-29T01:42:50.973Z,15.41
2022-11-29T01:43:03.893Z,15.39
2022-11-29T01:43:14.662Z,15.39
2022-11-29T01:43:28.424Z,15.41
2022-11-29T01:43:39.183Z,15.41
2022-11-29T01:43:52.415Z,15.41
2022-11-29T01:44:07.732Z,15.41
2022-11-29T01:44:21.202Z,15.41
2022-11-29T01:44:33.953Z,15.41
2022-11-29T01:44:44.991Z,15.39
2022-11-29T01:44:57.833Z,15.41
2022-11-29T01:45:08.572Z,15.39
2022-11-29T01:45:20.822Z,15.41
2022-11-29T01:45:32.563Z,15.41
2022-11-29T01:45:45.809Z,15.42
2022-11-29T01:45:57.805Z,15.41
2022-11-29T01:46:08.639Z,15.41
2022-11-29T01:46:19.446Z,15.41
2022-11-29T01:46:30.273Z,15.39
2022-11-29T01:46:41.088Z,15.41
2022-11-29T01:46:53.524Z,15.41
2022-11-29T01:47:05.975Z,15.42
2022-11-29T01:47:16.734Z,15.42
2022-11-29T01:47:28.971Z,15.41
2022-11-29T01:47:40.694Z,15.41
2022-11-29T01:47:53.903Z,15.42
2022-11-29T01:48:04.665Z,15.42
2022-11-29T01:48:15.422Z,15.42
2022-11-29T01:48:27.643Z,15.41
2022-11-29T01:48:40.115Z,15.41
2022-11-29T01:48:53.314Z,15.41
2022-11-29T01:49:05.264Z,15.41
2022-11-29T01:49:16.015Z,15.42
2022-11-29T01:49:27.724Z,15.41
2022-11-29T01:49:40.156Z,15.41
2022-11-29T01:49:50.874Z,15.39
2022-11-29T01:50:01.655Z,15.41
2022-11-29T01:50:12.433Z,15.41
2022-11-29T01:50:26.140Z,15.41
2022-11-29T01:50:36.935Z,15.41
2022-11-29T01:50:49.395Z,15.41
2022-11-29T01:51:00.175Z,15.39
2022-11-29T01:51:11.886Z,15.41
2022-11-29T01:51:24.336Z,15.41
2022-11-29T01:51:36.045Z,15.39
2022-11-29T01:51:48.495Z,15.41
2022-11-29T01:52:01.706Z,15.41
2022-11-29T01:52:15.155Z,15.41
2022-11-29T01:52:25.883Z,15.39
2022-11-29T01:52:36.656Z,15.41
2022-11-29T01:52:49.364Z,15.41
2022-11-29T01:53:01.596Z,15.39
2022-11-29T01:53:13.336Z,15.39
2022-11-29T01:53:25.567Z,15.41
2022-11-29T01:53:37.316Z,15.41
2022-11-29T01:53:50.496Z,15.41
2022-11-29T01:54:02.196Z,15.42
2022-11-29T01:54:14.826Z,15.41
2022-11-29T01:54:25.635Z,15.41
2022-11-29T01:54:36.500Z,15.41
2022-11-29T01:54:49.476Z,15.41
2022-11-29T01:55:01.967Z,15.38
2022-11-29T01:55:14.648Z,15.39
2022-11-29T01:55:25.616Z,15.41
2022-11-29T01:55:38.356Z,15.41
2022-11-29T01:55:50.864Z,15.41
2022-11-29T01:56:01.922Z,15.41
2022-11-29T01:56:12.714Z,15.39
2022-11-29T01:56:24.437Z,15.41
2022-11-29T01:56:35.256Z,15.39
2022-11-29T01:56:46.056Z,15.41
2022-11-29T01:56:58.478Z,15.41
2022-11-29T01:57:09.208Z,15.41
2022-11-29T01:57:21.680Z,15.41
2022-11-29T01:57:33.408Z,15.39
2022-11-29T01:57:46.607Z,15.41
2022-11-29T01:57:58.377Z,15.39
2022-11-29T01:58:10.829Z,15.42
2022-11-29T01:58:21.579Z,15.39
2022-11-29T01:58:32.379Z,15.38
2022-11-29T01:58:44.821Z,15.38
2022-11-29T01:58:58.042Z,15.39
2022-11-29T01:59:09.804Z,15.39
2022-11-29T01:59:20.629Z,15.39
2022-11-29T01:59:31.409Z,15.39
2022-11-29T01:59:43.640Z,15.39
2022-11-29T01:59:54.438Z,15.38
2022-11-29T02:00:06.178Z,15.38
2022-11-29T02:00:16.960Z,15.38
2022-11-29T02:00:30.169Z,15.38
2022-11-29T02:00:40.930Z,15.38
2022-11-29T02:00:51.679Z,15.39
2022-11-29T02:01:04.200Z,15.38
2022-11-29T02:01:15.016Z,15.39
2022-11-29T02:01:27.568Z,15.39
2022-11-29T02:01:39.377Z,15.39
2022-11-29T02:01:51.823Z,15.39
2022-11-29T02:02:04.336Z,15.38
2022-11-29T02:02:15.147Z,15.39
2022-11-29T02:02:26.916Z,15.38
2022-11-29T02:02:38.719Z,15.38
2022-11-29T02:02:49.594Z,15.39
2022-11-29T02:03:00.329Z,15.38
2022-11-29T02:03:12.792Z,15.38
2022-11-29T02:03:24.503Z,15.39
2022-11-29T02:03:35.282Z,15.39
2022-11-29T02:03:47.011Z,15.39
2022-11-29T02:04:00.222Z,15.38
2022-11-29T02:04:13.139Z,15.39
2022-11-29T02:04:25.350Z,15.38
2022-11-29T02:04:38.560Z,15.36
2022-11-29T02:04:51.021Z,15.38
2022-11-29T02:05:03.502Z,15.38
2022-11-29T02:05:16.022Z,15.38
2022-11-29T02:05:28.063Z,15.36
2022-11-29T02:05:40.499Z,15.39
2022-11-29T02:05:52.942Z,15.38
2022-11-29T02:06:04.662Z,15.38
2022-11-29T02:06:15.557Z,15.38
2022-11-29T02:06:28.764Z,15.39
2022-11-29T02:06:41.962Z,15.38
2022-11-29T02:06:54.151Z,15.38
2022-11-29T02:07:06.609Z,15.38
2022-11-29T02:07:19.894Z,15.39
2022-11-29T02:07:31.625Z,15.38
2022-11-29T02:07:42.384Z,15.39
2022-11-29T02:07:54.943Z,15.39
2022-11-29T02:08:07.413Z,15.39
2022-11-29T02:08:19.863Z,15.38
2022-11-29T02:08:32.302Z,15.38
2022-11-29T02:08:44.044Z,15.38
2022-11-29T02:08:55.752Z,15.38
2022-11-29T02:09:06.503Z,15.38
2022-11-29T02:09:18.722Z,15.38
2022-11-29T02:09:32.423Z,15.38
2022-11-29T02:09:44.154Z,15.38
2022-11-29T02:09:56.628Z,15.36
2022-11-29T02:10:09.582Z,15.36
2022-11-29T02:10:21.303Z,15.36
2022-11-29T02:10:33.542Z,15.35
2022-11-29T02:10:44.313Z,15.38
2022-11-29T02:10:57.268Z,15.36
2022-11-29T02:11:09.023Z,15.38
2022-11-29T02:11:22.223Z,15.38
2022-11-29T02:11:34.711Z,15.38
2022-11-29T02:11:47.153Z,15.38
2022-11-29T02:11:58.913Z,15.38
2022-11-29T02:12:09.662Z,15.39
2022-11-29T02:12:21.896Z,15.38
2022-11-29T02:12:34.613Z,15.38
2022-11-29T02:12:45.442Z,15.38
2022-11-29T02:12:58.645Z,15.38
2022-11-29T02:13:10.883Z,15.38
2022-11-29T02:13:24.605Z,15.36
2022-11-29T02:13:35.364Z,15.38
2022-11-29T02:13:47.135Z,15.38
2022-11-29T02:13:59.362Z,15.38
2022-11-29T02:14:11.798Z,15.38
2022-11-29T02:14:22.579Z,15.38
2022-11-29T02:14:34.994Z,15.38
2022-11-29T02:14:47.583Z,15.38
2022-11-29T02:14:59.933Z,15.39
2022-11-29T02:15:13.666Z,15.38
2022-11-29T02:15:25.934Z,15.38
2022-11-29T02:15:38.713Z,15.38
2022-11-29T02:15:49.539Z,15.38
2022-11-29T02:16:02.552Z,15.36
2022-11-29T02:16:14.311Z,15.38
2022-11-29T02:16:26.245Z,15.38
2022-11-29T02:16:37.035Z,15.39
2022-11-29T02:16:47.814Z,15.36
2022-11-29T02:17:00.275Z,15.38
2022-11-29T02:17:12.504Z,15.36
2022-11-29T02:17:23.275Z,15.36
2022-11-29T02:17:34.995Z,15.38
2022-11-29T02:17:45.743Z,15.36
2022-11-29T02:17:56.556Z,15.36
2022-11-29T02:18:07.365Z,15.36
2022-11-29T02:18:18.128Z,15.36
2022-11-29T02:18:29.876Z,15.36
2022-11-29T02:18:40.656Z,15.36
2022-11-29T02:18:52.384Z,15.35
2022-11-29T02:19:04.105Z,15.36
2022-11-29T02:19:14.894Z,15.35
2022-11-29T02:19:25.927Z,15.35
2022-11-29T02:19:38.356Z,15.36
2022-11-29T02:19:49.156Z,15.35
2022-11-29T02:20:01.876Z,15.35
2022-11-29T02:20:12.670Z,15.36
2022-11-29T02:20:25.136Z,15.36
2022-11-29T02:20:36.876Z,15.36
2022-11-29T02:20:48.607Z,15.36
2022-11-29T02:20:59.376Z,15.36
2022-11-29T02:21:11.828Z,15.35
2022-11-29T02:21:22.596Z,15.35
2022-11-29T02:21:34.298Z,15.35
2022-11-29T02:21:46.736Z,15.33
2022-11-29T02:21:57.517Z,15.36
2022-11-29T02:22:10.450Z,15.36
2022-11-29T02:22:22.898Z,15.36
2022-11-29T02:22:35.377Z,15.35
2022-11-29T02:22:46.156Z,15.35
2022-11-29T02:22:56.919Z,15.33
2022-11-29T02:23:07.696Z,15.33
2022-11-29T02:23:19.418Z,15.33
2022-11-29T02:23:30.213Z,15.36
2022-11-29T02:23:42.479Z,15.35
2022-11-29T02:23:54.959Z,15.35
2022-11-29T02:24:05.747Z,15.36
2022-11-29T02:24:18.189Z,15.36
2022-11-29T02:24:28.946Z,15.36
2022-11-29T02:24:41.877Z,15.35
2022-11-29T02:24:53.808Z,15.35
2022-11-29T02:25:04.588Z,15.36
2022-11-29T02:25:17.520Z,15.36
2022-11-29T02:25:29.974Z,15.36
2022-11-29T02:25:40.746Z,15.35
2022-11-29T02:25:52.508Z,15.36
2022-11-29T02:26:04.987Z,15.35
2022-11-29T02:26:16.740Z,15.36
2022-11-29T02:26:29.479Z,15.36
2022-11-29T02:26:41.209Z,15.36
2022-11-29T02:26:51.978Z,15.36
2022-11-29T02:27:03.738Z,15.36
2022-11-29T02:27:16.961Z,15.36
2022-11-29T02:27:27.749Z,15.35
2022-11-29T02:27:40.959Z,15.36
2022-11-29T02:27:51.699Z,15.36
2022-11-29T02:28:02.487Z,15.36
2022-11-29T02:28:15.439Z,15.35
2022-11-29T02:28:27.681Z,15.35
2022-11-29T02:28:39.659Z,15.35
2022-11-29T02:28:51.389Z,15.36
2022-11-29T02:29:03.090Z,15.35
2022-11-29T02:29:14.120Z,15.35
2022-11-29T02:29:25.830Z,15.35
2022-11-29T02:29:36.581Z,15.36
2022-11-29T02:29:47.380Z,15.36
2022-11-29T02:29:59.861Z,15.33
2022-11-29T02:30:10.621Z,15.35
2022-11-29T02:30:22.394Z,15.35
2022-11-29T02:30:33.221Z,15.35
2022-11-29T02:30:45.679Z,15.36
2022-11-29T02:30:57.495Z,15.35
2022-11-29T02:31:08.420Z,15.35
2022-11-29T02:31:19.204Z,15.36
2022-11-29T02:31:31.662Z,15.35